createdAt,value
2022-12-29T00:02:19.173Z,1.88
2022-12-29T00:04:47.735Z,1.48
2022-12-29T00:07:14.154Z,1.70
2022-12-29T00:09:40.738Z,1.48
2022-12-29T00:12:07.440Z,1.55
2022-12-29T00:14:52.529Z,1.75
2022-12-29T00:17:19.090Z,1.55
2022-12-29T00:20:04.175Z,1.70
2022-12-29T00:22:49.463Z,1.50
2022-12-29T00:25:34.503Z,1.50
2022-12-29T00:28:19.858Z,1.42
2022-12-29T00:31:05.089Z,1.60
2022-12-29T00:33:52.387Z,1.50
2022-12-29T00:36:21.759Z,1.60
2022-12-29T00:39:10.465Z,1.55
2022-12-29T00:41:55.671Z,1.50
2022-12-29T00:44:22.257Z,1.60
2022-12-29T00:46:50.804Z,1.40
2022-12-29T00:53:19.426Z,1.50
2022-12-29T00:55:53.625Z,1.80
2022-12-29T00:58:21.009Z,1.40
2022-12-29T01:03:39.216Z,1.30
2022-12-29T01:06:50.779Z,1.40
2022-12-29T01:13:23.961Z,1.27
2022-12-29T01:15:53.533Z,1.40
2022-12-29T01:18:33.503Z,1.10
2022-12-29T01:21:08.180Z,1.08
2022-12-29T01:23:34.702Z,0.90
2022-12-29T01:26:12.256Z,0.90
2022-12-29T01:28:41.034Z,1.00
2022-12-29T01:31:10.814Z,1.25
2022-12-29T01:33:37.439Z,1.00
2022-12-29T01:36:09.605Z,0.93
2022-12-29T01:38:37.376Z,1.17
2022-12-29T01:41:04.705Z,1.10
2022-12-29T01:43:48.342Z,0.80
2022-12-29T01:46:27.565Z,0.95
2022-12-29T01:51:24.201Z,1.30
2022-12-29T01:53:51.054Z,1.30
2022-12-29T01:56:20.595Z,1.10
2022-12-29T01:58:49.505Z,1.20
2022-12-29T02:01:17.861Z,1.10
2022-12-29T02:03:44.900Z,1.15
2022-12-29T02:06:16.407Z,1.00
2022-12-29T02:08:44.900Z,0.80
2022-12-29T02:11:12.058Z,0.93
2022-12-29T02:13:38.687Z,0.98
2022-12-29T02:16:07.821Z,1.00
2022-12-29T02:18:43.470Z,0.90
2022-12-29T02:21:19.007Z,0.82
2022-12-29T02:24:07.369Z,0.80
2022-12-29T02:27:12.080Z,0.85
2022-12-29T02:30:03.564Z,1.48
2022-12-29T02:32:40.525Z,0.90
2022-12-29T02:35:16.033Z,0.60
2022-12-29T02:38:09.196Z,0.80
2022-12-29T02:41:04.319Z,1.00
2022-12-29T02:43:40.185Z,0.85
2022-12-29T02:46:31.325Z,0.95
2022-12-29T02:49:07.539Z,0.95
2022-12-29T02:51:43.124Z,0.80
2022-12-29T02:54:28.443Z,0.93
2022-12-29T02:56:55.016Z,1.05
2022-12-29T02:59:21.718Z,0.90
2022-12-29T03:02:21.321Z,0.90
2022-12-29T03:05:06.302Z,0.80
2022-12-29T03:07:48.420Z,1.02
2022-12-29T03:10:37.668Z,1.00
2022-12-29T03:16:08.485Z,0.77
2022-12-29T03:18:54.137Z,0.73
2022-12-29T03:21:48.507Z,1.20
2022-12-29T03:24:21.336Z,0.98
2022-12-29T03:26:48.892Z,1.00
2022-12-29T03:29:18.745Z,0.98
2022-12-29T03:31:48.456Z,0.88
2022-12-29T03:34:15.710Z,1.17
2022-12-29T03:36:54.680Z,1.20
2022-12-29T03:39:23.337Z,0.90
2022-12-29T03:41:52.001Z,1.20
2022-12-29T03:44:19.442Z,1.10
2022-12-29T03:46:46.955Z,1.10
2022-12-29T03:49:13.925Z,1.15
2022-12-29T03:51:40.468Z,0.90
2022-12-29T03:54:07.416Z,0.90
2022-12-29T03:56:34.162Z,1.08
2022-12-29T03:59:02.117Z,1.10
2022-12-29T04:01:37.370Z,1.30
2022-12-29T04:04:03.958Z,1.10
2022-12-29T04:06:31.033Z,1.08
2022-12-29T04:09:02.315Z,1.00
2022-12-29T04:11:33.428Z,0.95
2022-12-29T04:14:02.518Z,1.10
2022-12-29T04:16:31.040Z,1.02
2022-12-29T04:18:57.530Z,1.15
2022-12-29T04:21:24.209Z,1.15
2022-12-29T04:23:51.242Z,1.13
2022-12-29T04:26:17.960Z,1.10
2022-12-29T04:28:59.725Z,0.90
2022-12-29T04:31:35.080Z,1.13
2022-12-29T04:34:01.983Z,1.42
2022-12-29T04:36:30.254Z,1.10
2022-12-29T04:38:57.487Z,1.17
2022-12-29T04:41:24.572Z,1.20
2022-12-29T04:43:51.696Z,1.13
2022-12-29T04:46:37.108Z,1.05
2022-12-29T04:49:23.124Z,1.88
2022-12-29T04:54:40.651Z,0.95
2022-12-29T04:57:13.122Z,1.02
2022-12-29T04:59:40.204Z,1.10
2022-12-29T05:02:08.796Z,1.10
2022-12-29T05:04:36.169Z,1.10
2022-12-29T05:07:02.784Z,1.10
2022-12-29T05:09:30.765Z,1.00
2022-12-29T05:11:57.241Z,0.98
2022-12-29T05:14:23.746Z,1.10
2022-12-29T05:16:50.308Z,1.20
2022-12-29T05:19:17.981Z,1.27
2022-12-29T05:21:50.757Z,1.00
2022-12-29T05:24:17.484Z,1.02
2022-12-29T05:26:45.240Z,1.00
2022-12-29T05:29:29.879Z,0.90
2022-12-29T05:31:57.684Z,1.20
2022-12-29T05:34:25.556Z,1.20
2022-12-29T05:36:52.237Z,1.10
2022-12-29T05:39:19.186Z,1.08
2022-12-29T05:41:50.770Z,1.10
2022-12-29T05:44:52.986Z,1.17
2022-12-29T05:47:38.179Z,1.07
2022-12-29T05:50:13.281Z,0.90
2022-12-29T05:52:59.320Z,1.20
2022-12-29T05:55:26.199Z,0.90
2022-12-29T05:57:54.177Z,1.02
2022-12-29T06:00:20.739Z,0.82
2022-12-29T06:02:47.707Z,0.90
2022-12-29T06:05:15.938Z,0.90
2022-12-29T06:07:42.896Z,1.02
2022-12-29T06:10:09.998Z,0.90
2022-12-29T06:12:45.068Z,1.00
2022-12-29T06:15:11.808Z,1.05
2022-12-29T06:17:41.574Z,1.00
2022-12-29T06:20:09.109Z,0.90
2022-12-29T06:22:35.624Z,0.93
2022-12-29T06:25:05.202Z,1.05
2022-12-29T06:27:33.731Z,1.10
2022-12-29T06:30:00.802Z,1.35
2022-12-29T06:32:28.472Z,1.17
2022-12-29T06:35:00.573Z,1.30
2022-12-29T06:37:27.282Z,1.30
2022-12-29T06:39:53.789Z,1.30
2022-12-29T06:42:20.964Z,1.13
2022-12-29T06:45:09.227Z,1.10
2022-12-29T06:47:36.055Z,0.98
2022-12-29T06:50:03.168Z,1.30
2022-12-29T06:52:29.780Z,1.40
2022-12-29T06:54:56.328Z,1.33
2022-12-29T06:57:23.039Z,1.38
2022-12-29T06:59:49.657Z,1.33
2022-12-29T07:02:19.104Z,1.23
2022-12-29T07:04:45.895Z,1.40
2022-12-29T07:07:12.337Z,1.45
2022-12-29T07:09:38.852Z,1.30
2022-12-29T07:12:05.466Z,1.38
2022-12-29T07:14:34.701Z,1.40
2022-12-29T07:17:07.200Z,1.45
2022-12-29T07:19:34.382Z,1.60
2022-12-29T07:22:00.870Z,1.40
2022-12-29T07:24:27.335Z,1.20
2022-12-29T07:26:53.762Z,1.35
2022-12-29T07:29:20.222Z,1.50
2022-12-29T07:31:46.691Z,1.55
2022-12-29T07:34:13.247Z,1.45
2022-12-29T07:36:39.736Z,1.20
2022-12-29T07:39:06.592Z,1.50
2022-12-29T07:41:33.062Z,1.20
2022-12-29T07:46:55.675Z,1.27
2022-12-29T07:49:22.548Z,1.48
2022-12-29T07:51:49.026Z,1.20
2022-12-29T07:54:15.514Z,1.50
2022-12-29T07:56:41.931Z,1.40
2022-12-29T07:59:08.475Z,1.35
2022-12-29T08:01:35.069Z,1.27
2022-12-29T08:04:01.613Z,1.10
2022-12-29T08:06:29.602Z,1.63
2022-12-29T08:08:57.175Z,1.20
2022-12-29T08:11:24.138Z,1.70
2022-12-29T08:13:51.422Z,1.30
2022-12-29T08:16:18.029Z,1.90
2022-12-29T08:18:45.211Z,1.67
2022-12-29T08:21:11.801Z,1.40
2022-12-29T08:23:38.261Z,1.50
2022-12-29T08:26:05.849Z,1.70
2022-12-29T08:28:33.167Z,1.55
2022-12-29T08:31:01.692Z,1.90
2022-12-29T08:33:29.011Z,1.67
2022-12-29T08:36:03.791Z,1.60
2022-12-29T08:38:30.496Z,1.48
2022-12-29T08:40:58.012Z,1.38
2022-12-29T08:43:24.597Z,1.55
2022-12-29T08:45:51.430Z,1.73
2022-12-29T08:48:20.565Z,1.48
2022-12-29T08:50:47.341Z,1.60
2022-12-29T08:53:13.880Z,1.70
2022-12-29T08:55:40.305Z,1.60
2022-12-29T08:58:06.893Z,1.60
2022-12-29T09:00:35.758Z,1.83
2022-12-29T09:03:02.489Z,1.77
2022-12-29T09:05:29.131Z,1.75
2022-12-29T09:07:55.655Z,1.85
2022-12-29T09:10:22.154Z,1.70
2022-12-29T09:12:48.623Z,1.45
2022-12-29T09:15:16.419Z,1.50
2022-12-29T09:17:46.229Z,1.65
2022-12-29T09:20:17.846Z,1.60
2022-12-29T09:22:45.172Z,1.60
2022-12-29T09:25:11.865Z,1.58
2022-12-29T09:27:39.054Z,2.08
2022-12-29T09:30:08.009Z,1.60
2022-12-29T09:32:37.867Z,1.80
2022-12-29T09:35:07.367Z,1.90
2022-12-29T09:37:33.852Z,1.70
2022-12-29T09:40:00.500Z,1.30
2022-12-29T09:42:40.401Z,1.58
2022-12-29T09:45:18.124Z,1.42
2022-12-29T09:47:46.478Z,1.50
2022-12-29T09:50:28.019Z,1.60
2022-12-29T09:53:18.097Z,1.63
2022-12-29T09:55:50.441Z,1.42
2022-12-29T09:58:40.315Z,1.60
2022-12-29T10:01:08.117Z,1.40
2022-12-29T10:03:52.137Z,1.70
2022-12-29T10:06:22.655Z,1.58
2022-12-29T10:08:56.950Z,1.80
2022-12-29T10:12:00.837Z,1.58
2022-12-29T10:14:59.522Z,1.50
2022-12-29T10:17:28.172Z,2.00
2022-12-29T10:20:22.677Z,1.58
2022-12-29T10:23:07.653Z,1.27
2022-12-29T10:25:38.775Z,1.70
2022-12-29T10:28:20.536Z,1.45
2022-12-29T10:30:48.906Z,1.30
2022-12-29T10:33:34.218Z,1.40
2022-12-29T10:36:05.771Z,1.65
2022-12-29T10:38:39.476Z,1.45
2022-12-29T10:41:19.472Z,1.27
2022-12-29T10:43:48.555Z,1.30
2022-12-29T10:48:46.324Z,1.60
2022-12-29T10:51:22.916Z,1.70
2022-12-29T10:54:12.520Z,2.05
2022-12-29T10:56:49.803Z,1.30
2022-12-29T10:59:21.718Z,1.27
2022-12-29T11:02:11.490Z,0.82
2022-12-29T11:05:21.000Z,1.30
2022-12-29T11:07:49.561Z,0.70
2022-12-29T11:10:34.081Z,0.75
2022-12-29T11:13:02.707Z,1.00
2022-12-29T11:15:39.666Z,1.00
2022-12-29T11:18:06.081Z,1.05
2022-12-29T11:20:40.531Z,1.00
2022-12-29T11:23:26.964Z,1.00
2022-12-29T11:26:18.682Z,1.30
2022-12-29T11:28:48.592Z,2.03
2022-12-29T11:31:19.045Z,1.60
2022-12-29T11:33:45.540Z,1.65
2022-12-29T11:36:21.466Z,1.90
2022-12-29T11:38:51.124Z,1.73
2022-12-29T11:41:29.281Z,1.98
2022-12-29T11:43:58.574Z,2.10
2022-12-29T11:48:52.212Z,1.83
2022-12-29T11:51:27.941Z,1.80
2022-12-29T11:53:57.794Z,1.90
2022-12-29T11:56:43.907Z,1.55
2022-12-29T11:59:39.739Z,1.60
2022-12-29T12:02:42.963Z,2.00
2022-12-29T12:05:14.383Z,1.30
2022-12-29T12:07:45.616Z,1.30
2022-12-29T12:10:23.502Z,1.50
2022-12-29T12:13:09.438Z,1.20
2022-12-29T12:15:45.936Z,1.33
2022-12-29T12:18:28.891Z,1.40
2022-12-29T12:20:58.664Z,1.30
2022-12-29T12:24:08.498Z,1.30
2022-12-29T12:26:46.433Z,1.23
2022-12-29T12:29:36.615Z,1.30
2022-12-29T12:32:26.138Z,1.25
2022-12-29T12:34:52.780Z,1.30
2022-12-29T12:37:28.422Z,1.15
2022-12-29T12:40:33.771Z,1.60
2022-12-29T12:43:24.036Z,1.60
2022-12-29T12:46:12.126Z,1.63
2022-12-29T12:48:44.528Z,1.48
2022-12-29T12:51:26.211Z,1.30
2022-12-29T12:53:56.405Z,1.27
2022-12-29T12:56:47.571Z,1.27
2022-12-29T12:59:43.715Z,1.42
2022-12-29T13:02:29.635Z,1.23
2022-12-29T13:05:11.395Z,1.30
2022-12-29T13:08:01.345Z,1.42
2022-12-29T13:10:53.012Z,1.30
2022-12-29T13:13:33.780Z,1.20
2022-12-29T13:16:22.329Z,1.30
2022-12-29T13:18:54.263Z,1.05
2022-12-29T13:22:00.078Z,1.00
2022-12-29T13:24:45.488Z,1.45
2022-12-29T13:27:37.956Z,1.25
2022-12-29T13:30:17.058Z,1.48
2022-12-29T13:33:01.608Z,1.48
2022-12-29T13:36:06.453Z,1.42
2022-12-29T13:38:35.844Z,1.33
2022-12-29T13:41:25.073Z,1.20
2022-12-29T13:46:23.486Z,1.10
2022-12-29T13:48:53.459Z,1.20
2022-12-29T13:51:27.653Z,0.93
2022-12-29T13:54:03.839Z,0.93
2022-12-29T13:56:41.794Z,1.15
2022-12-29T13:59:18.989Z,0.80
2022-12-29T14:01:59.461Z,0.90
2022-12-29T14:04:28.248Z,1.08
2022-12-29T14:07:00.244Z,1.10
2022-12-29T14:09:48.658Z,0.90
2022-12-29T14:12:37.106Z,0.90
2022-12-29T14:15:06.084Z,0.90
2022-12-29T14:17:43.480Z,0.90
2022-12-29T14:20:23.785Z,1.10
2022-12-29T14:23:09.015Z,0.77
2022-12-29T14:26:06.399Z,0.90
2022-12-29T14:28:38.821Z,1.13
2022-12-29T14:31:17.582Z,0.80
2022-12-29T14:34:11.802Z,1.30
2022-12-29T14:36:56.577Z,0.85
2022-12-29T14:39:42.843Z,1.00
2022-12-29T14:42:11.987Z,1.10
2022-12-29T14:44:55.120Z,0.70
2022-12-29T14:47:29.161Z,1.15
2022-12-29T14:49:55.904Z,1.15
2022-12-29T14:52:26.563Z,0.88
2022-12-29T14:54:57.203Z,0.73
2022-12-29T14:57:28.853Z,0.98
2022-12-29T15:00:00.554Z,0.98
2022-12-29T15:02:34.203Z,0.90
2022-12-29T15:05:02.215Z,0.88
2022-12-29T15:07:30.208Z,0.80
2022-12-29T15:10:00.892Z,0.80
2022-12-29T15:12:42.808Z,0.90
2022-12-29T15:15:24.439Z,0.73
2022-12-29T15:17:51.248Z,1.02
2022-12-29T15:20:18.041Z,0.80
2022-12-29T15:22:45.753Z,0.70
2022-12-29T15:25:16.695Z,0.82
2022-12-29T15:27:43.986Z,1.00
2022-12-29T15:30:18.039Z,0.93
2022-12-29T15:32:45.892Z,0.80
2022-12-29T15:35:35.249Z,0.90
2022-12-29T15:38:14.243Z,0.82
2022-12-29T15:40:40.759Z,0.98
2022-12-29T15:43:31.531Z,0.70
2022-12-29T15:45:58.134Z,1.60
2022-12-29T15:48:25.649Z,1.30
2022-12-29T15:50:52.458Z,1.00
2022-12-29T15:53:32.905Z,0.93
2022-12-29T15:56:10.960Z,0.80
2022-12-29T15:58:45.660Z,1.13
2022-12-29T16:01:28.220Z,0.90
2022-12-29T16:03:55.021Z,1.20
2022-12-29T16:06:29.046Z,1.10
2022-12-29T16:09:01.407Z,1.13
2022-12-29T16:11:33.432Z,1.00
2022-12-29T16:14:00.343Z,1.10
2022-12-29T16:16:39.464Z,0.82
2022-12-29T16:19:32.773Z,0.90
2022-12-29T16:21:59.868Z,1.05
2022-12-29T16:24:27.847Z,1.10
2022-12-29T16:27:20.138Z,0.90
2022-12-29T16:29:55.309Z,1.13
2022-12-29T16:32:27.841Z,1.20
2022-12-29T16:35:13.170Z,0.93
2022-12-29T16:37:40.408Z,1.05
2022-12-29T16:40:18.675Z,1.00
2022-12-29T16:45:24.458Z,1.42
2022-12-29T16:48:06.249Z,0.93
2022-12-29T16:50:34.189Z,0.93
2022-12-29T16:53:01.357Z,1.30
2022-12-29T16:55:27.827Z,1.10
2022-12-29T16:57:57.107Z,1.20
2022-12-29T17:00:28.181Z,1.52
2022-12-29T17:02:57.253Z,1.20
2022-12-29T17:05:23.931Z,1.67
2022-12-29T17:07:52.082Z,1.23
2022-12-29T17:10:18.494Z,1.50
2022-12-29T17:12:47.166Z,1.38
2022-12-29T17:15:28.037Z,1.30
2022-12-29T17:17:56.032Z,1.45
2022-12-29T17:20:24.778Z,1.30
2022-12-29T17:22:53.989Z,1.20
2022-12-29T17:27:58.714Z,1.35
2022-12-29T17:30:32.870Z,1.30
2022-12-29T17:33:06.417Z,1.40
2022-12-29T17:35:32.837Z,1.83
2022-12-29T17:37:59.251Z,2.05
2022-12-29T17:40:29.253Z,1.70
2022-12-29T17:42:57.223Z,1.27
2022-12-29T17:45:28.860Z,1.55
2022-12-29T17:47:55.720Z,1.27
2022-12-29T17:50:24.471Z,1.80
2022-12-29T17:53:01.046Z,2.13
2022-12-29T17:55:34.705Z,1.55
2022-12-29T17:58:29.602Z,1.80
2022-12-29T18:00:58.477Z,1.90
2022-12-29T18:03:28.596Z,1.88
2022-12-29T18:05:55.339Z,1.55
2022-12-29T18:08:21.911Z,1.40
2022-12-29T18:10:48.559Z,1.63
2022-12-29T18:13:28.115Z,1.85
2022-12-29T18:15:57.824Z,1.75
2022-12-29T18:18:26.414Z,1.60
2022-12-29T18:20:56.188Z,1.77
2022-12-29T18:23:35.226Z,2.28
2022-12-29T18:26:07.989Z,1.42
2022-12-29T18:28:34.412Z,1.85
2022-12-29T18:31:01.431Z,1.50
2022-12-29T18:33:28.541Z,1.50
2022-12-29T18:35:56.639Z,2.05
2022-12-29T18:38:23.118Z,1.92
2022-12-29T18:40:50.295Z,1.70
2022-12-29T18:43:18.052Z,1.70
2022-12-29T18:45:45.977Z,1.60
2022-12-29T18:48:13.604Z,2.00
2022-12-29T18:50:40.075Z,2.03
2022-12-29T18:53:06.728Z,2.05
2022-12-29T18:55:33.415Z,1.90
2022-12-29T18:57:59.808Z,1.60
2022-12-29T19:00:26.342Z,1.80
2022-12-29T19:02:53.049Z,1.90
2022-12-29T19:05:25.185Z,2.30
2022-12-29T19:07:52.400Z,1.70
2022-12-29T19:10:19.464Z,2.45
2022-12-29T19:12:45.962Z,2.42
2022-12-29T19:15:27.172Z,1.65
2022-12-29T19:18:24.032Z,2.10
2022-12-29T19:20:43.076Z,2.03
2022-12-29T19:23:12.561Z,1.90
2022-12-29T19:25:39.671Z,1.92
2022-12-29T19:28:07.610Z,1.77
2022-12-29T19:30:35.224Z,2.05
2022-12-29T19:33:09.678Z,1.92
2022-12-29T19:35:36.608Z,1.67
2022-12-29T19:38:03.065Z,1.95
2022-12-29T19:40:30.042Z,2.08
2022-12-29T19:42:57.020Z,1.90
2022-12-29T19:45:23.589Z,1.70
2022-12-29T19:47:50.380Z,2.05
2022-12-29T19:50:17.443Z,2.08
2022-12-29T19:52:45.221Z,2.03
2022-12-29T19:55:15.567Z,1.80
2022-12-29T19:57:42.767Z,1.80
2022-12-29T20:00:10.635Z,2.10
2022-12-29T20:02:40.665Z,1.85
2022-12-29T20:05:08.250Z,2.00
2022-12-29T20:07:35.245Z,1.98
2022-12-29T20:10:01.758Z,1.65
2022-12-29T20:12:29.415Z,1.73
2022-12-29T20:14:56.595Z,1.60
2022-12-29T20:17:53.791Z,1.92
2022-12-29T20:20:09.838Z,1.80
2022-12-29T20:22:36.220Z,1.80
2022-12-29T20:25:43.189Z,1.73
2022-12-29T20:27:51.057Z,1.88
2022-12-29T20:30:17.898Z,1.67
2022-12-29T20:32:44.373Z,1.73
2022-12-29T20:35:12.601Z,1.92
2022-12-29T20:37:39.085Z,1.70
2022-12-29T20:40:05.858Z,2.00
2022-12-29T20:42:32.316Z,1.73
2022-12-29T20:44:58.734Z,2.15
2022-12-29T20:47:25.232Z,1.60
2022-12-29T20:49:51.669Z,2.08
2022-12-29T20:52:18.153Z,2.60
2022-12-29T20:54:45.095Z,2.92
2022-12-29T20:57:11.675Z,2.10
2022-12-29T20:59:38.612Z,2.03
2022-12-29T21:02:05.260Z,2.05
2022-12-29T21:04:50.139Z,2.33
2022-12-29T21:07:20.357Z,2.22
2022-12-29T21:09:46.970Z,2.78
2022-12-29T21:12:13.374Z,2.50
2022-12-29T21:14:45.421Z,2.25
2022-12-29T21:17:12.340Z,2.47
2022-12-29T21:19:38.937Z,1.70
2022-12-29T21:22:05.443Z,2.17
2022-12-29T21:24:31.952Z,4.47
2022-12-29T21:26:58.406Z,2.33
2022-12-29T21:29:24.812Z,1.88
2022-12-29T21:31:51.321Z,1.90
2022-12-29T21:34:17.764Z,2.00
2022-12-29T21:36:44.174Z,2.42
2022-12-29T21:39:12.012Z,1.77
2022-12-29T21:41:38.596Z,2.33
2022-12-29T21:44:23.665Z,1.90
2022-12-29T21:46:50.075Z,2.58
2022-12-29T21:49:16.487Z,2.63
2022-12-29T21:51:54.285Z,2.20
2022-12-29T21:54:44.225Z,2.72
2022-12-29T21:57:16.596Z,2.30
2022-12-29T22:00:26.093Z,1.85
2022-12-29T22:03:18.321Z,2.20
2022-12-29T22:06:07.546Z,2.53
2022-12-29T22:08:52.480Z,1.73
2022-12-29T22:11:37.671Z,1.98
2022-12-29T22:14:04.227Z,1.70
2022-12-29T22:16:30.735Z,1.98
2022-12-29T22:18:57.357Z,2.38
2022-12-29T22:21:23.867Z,2.15
2022-12-29T22:23:50.336Z,2.42
2022-12-29T22:26:17.099Z,2.63
2022-12-29T22:28:45.878Z,2.25
2022-12-29T22:31:30.027Z,2.05
2022-12-29T22:33:57.400Z,1.80
2022-12-29T22:36:24.067Z,2.33
2022-12-29T22:38:50.695Z,1.90
2022-12-29T22:41:17.267Z,2.08
2022-12-29T22:43:43.774Z,2.30
2022-12-29T22:46:11.841Z,2.25
2022-12-29T22:48:38.477Z,2.20
2022-12-29T22:51:05.513Z,2.20
2022-12-29T22:53:32.032Z,2.00
